Pacific Princess — ZCDS3 — position and weather

sailwx.info

Track history (hours):
 
Tides and Currents Weather Stations Pressure Air Temp Water Temp Dewpoint Dewpoint Depression Visibility Wind Speed Wind Dir Waves Ship Positions

Pacific Princess (Bermuda)

Last reported at 2018-Jul-19 02:07 UTC. Time now 2018-Jul-19 05:56 UTC.
Position N 53°31' E 003°00'.

Length 180.5 m; beam 25.6 m; draft 6 m.

Type: Passenger vessel. MMSI: 310504000.

Date/timePositionNaut miles runAvg speedWind from/ knotsBaromVisibWave heightAir tempDewpointWater temp
2018-Jul-19 02:07N 53°31' E 003°00'216.2
2018-Jul-19 02:00N 53°29' E 002°59'816.2
2018-Jul-19 01:29N 53°22' E 002°53'816.0
2018-Jul-19 01:00N 53°15' E 002°48'815.9
2018-Jul-19 00:30N 53°07' E 002°43'815.5
2018-Jul-19 00:00N 52°60' E 002°41'815.9
2018-Jul-18 23:30N 52°52' E 002°42'816.1
2018-Jul-18 23:00N 52°44' E 002°42'816.6
2018-Jul-18 22:31N 52°36' E 002°45'816.8
2018-Jul-18 22:00N 52°27' E 002°42'917.4
2018-Jul-18 21:30N 52°19' E 002°39'917.9
2018-Jul-18 21:00N 52°10' E 002°38'918.1
2018-Jul-18 20:30N 52°01' E 002°37'918.1
2018-Jul-18 20:00N 51°52' E 002°38'917.6
2018-Jul-18 19:30N 51°43' E 002°35'918.1
2018-Jul-18 19:00N 51°37' E 002°25'918.3
2018-Jul-18 18:30N 51°30' E 002°14'918.7
2018-Jul-18 18:00N 51°23' E 002°05'918.7
2018-Jul-18 17:30N 51°17' E 001°54'1019.4
2018-Jul-18 17:00N 51°09' E 001°44'1019.4
2018-Jul-18 16:30N 51°03' E 001°32'816.0
2018-Jul-18 16:00N 51°06' E 001°21'1 2.2
2018-Jul-18 15:29N 51°07' E 001°19'0 0.0
2018-Jul-18 14:43N 51°07' E 001°19'0 0.0
2018-Jul-18 14:24N 51°07' E 001°19'0 0.0
2018-Jul-18 13:25N 51°07' E 001°19'0 0.0
2018-Jul-18 12:58N 51°07' E 001°19'0 0.0
2018-Jul-18 12:28N 51°07' E 001°19'0 0.0
2018-Jul-18 11:58N 51°07' E 001°19'0 0.0
2018-Jul-18 11:25N 51°07' E 001°19'0 0.0
2018-Jul-18 10:22N 51°07' E 001°19'0 0.0
2018-Jul-18 09:58N 51°07' E 001°19'0 0.0
2018-Jul-18 09:28N 51°07' E 001°19'0 0.0
2018-Jul-18 08:58N 51°07' E 001°19'0 0.0
2018-Jul-18 08:28N 51°07' E 001°19'0 0.0
2018-Jul-18 07:58N 51°07' E 001°19'0 0.0
2018-Jul-18 07:25N 51°07' E 001°19'0 0.0
2018-Jul-18 06:58N 51°07' E 001°19'0 0.0
2018-Jul-18 06:28N 51°07' E 001°19'0 0.0
2018-Jul-18 05:58N 51°07' E 001°19'0 0.0
2018-Jul-18 05:28N 51°07' E 001°19'0 0.0
2018-Jul-18 04:55N 51°07' E 001°19'0 0.2
2018-Jul-18 04:30N 51°07' E 001°19'3 5.4
2018-Jul-18 04:00N 51°08' E 001°24'510.7
2018-Jul-18 03:30N 51°09' E 001°32'713.1
2018-Jul-18 03:00N 51°12' E 001°41'611.9
2018-Jul-18 02:30N 51°17' E 001°46'713.9
2018-Jul-18 02:00N 51°23' E 001°51'714.7
2018-Jul-18 01:30N 51°29' E 001°57'815.1
2018-Jul-18 01:00N 51°35' E 002°06'918.9
2018-Jul-18 00:30N 51°41' E 002°17'1019.1
2018-Jul-18 00:00N 51°49' E 002°27'918.8
2018-Jul-17 23:30N 51°56' E 002°36'1120.1
2018-Jul-17 22:56N 52°04' E 002°50'919.8
2018-Jul-17 22:30N 52°10' E 002°60'919.1
2018-Jul-17 22:00N 52°16' E 003°12'1018.9
2018-Jul-17 21:29N 52°22' E 003°25'918.6
2018-Jul-17 20:59N 52°27' E 003°37'918.0
2018-Jul-17 20:29N 52°31' E 003°51'918.2
2018-Jul-17 20:00N 52°31' E 004°05'918.2
2018-Jul-17 19:30N 52°30' E 004°20'714.0
2018-Jul-17 19:00N 52°28' E 004°31'3 6.8
2018-Jul-17 18:30N 52°28' E 004°37'1 1.7
2018-Jul-17 18:00N 52°28' E 004°38'0 0.6
2018-Jul-17 17:30N 52°28' E 004°38'2 4.3
2018-Jul-17 17:00N 52°27' E 004°41'3 6.1
2018-Jul-17 16:30N 52°26' E 004°46'3 6.4
2018-Jul-17 16:00N 52°25' E 004°51'3 6.3
2018-Jul-17 15:30N 52°23' E 004°55'0 0.0
2018-Jul-17 14:59N 52°23' E 004°55'0 0.0
2018-Jul-17 14:29N 52°23' E 004°55'0 0.0
2018-Jul-17 14:00N 52°23' E 004°55'0 0.0
2018-Jul-17 13:30N 52°23' E 004°55'0 0.0
2018-Jul-17 13:00N 52°23' E 004°55'0 0.0
2018-Jul-17 12:30N 52°23' E 004°55'0 0.0
2018-Jul-17 12:00N 52°23' E 004°55'0 0.0
2018-Jul-17 11:30N 52°23' E 004°55'0 0.0
2018-Jul-17 11:00N 52°23' E 004°55'0 0.0
2018-Jul-17 10:30N 52°23' E 004°55'0 0.0
2018-Jul-17 10:00N 52°23' E 004°55'0 0.0
2018-Jul-17 09:30N 52°23' E 004°55'0 0.0
2018-Jul-17 09:00N 52°23' E 004°55'0 0.1
2018-Jul-17 08:30N 52°23' E 004°55'2 3.9
2018-Jul-17 08:00N 52°24' E 004°53'4 7.4
2018-Jul-17 07:30N 52°26' E 004°47'4 8.1
2018-Jul-17 07:00N 52°27' E 004°41'3 5.7
2018-Jul-17 06:30N 52°28' E 004°37'1 1.6
2018-Jul-17 06:00N 52°28' E 004°35'1 3.0
2018-Jul-17 05:30N 52°28' E 004°33'2 4.2
2018-Jul-17 05:00N 52°28' E 004°29'1 2.0
2018-Jul-17 04:30N 52°28' E 004°28'3 6.9
2018-Jul-17 04:00N 52°29' E 004°23'510.3
2018-Jul-17 03:30N 52°29' E 004°14'611.7
2018-Jul-17 03:00N 52°32' E 004°07'714.6
2018-Jul-17 02:30N 52°39' E 004°03'815.1
2018-Jul-17 02:01N 52°47' E 003°59'1714.0
2018-Jul-17 00:46N 53°02' E 004°12'415.4
2018-Jul-17 00:30N 53°05' E 004°17'1514.6
2018-Jul-16 23:30N 53°17' E 004°30'714.7
2018-Jul-16 23:00N 53°24' E 004°34'713.8
2018-Jul-16 22:30N 53°29' E 004°42'713.9
2018-Jul-16 22:00N 53°32' E 004°53'713.7
2018-Jul-16 21:30N 53°34' E 005°04'713.6
2018-Jul-16 21:00N 53°37' E 005°15'713.4
2018-Jul-16 20:30N 53°39' E 005°25'713.6
2018-Jul-16 20:00N 53°41' E 005°36'4815.8
2018-Jul-16 17:00N 53°54' E 006°54'3021.8 030 / 101016.410.8 19.516.2
2018-Jul-16 15:37N 54°03' E 007°43'217.9
2018-Jul-16 15:29N 54°03' E 007°47'917.8
2018-Jul-16 14:57N 54°01' E 008°03'714.9
2018-Jul-16 14:29N 53°60' E 008°15'713.8
2018-Jul-16 14:00N 53°59' E 008°26'815.6
2018-Jul-16 13:30N 53°57' E 008°38'713.2
2018-Jul-16 13:00N 53°51' E 008°45'611.7
2018-Jul-16 12:30N 53°51' E 008°55'612.9
2018-Jul-16 12:00N 53°52' E 009°05'2 4.9
2018-Jul-16 11:30N 53°54' E 009°09'0 0.4
2018-Jul-16 11:00N 53°54' E 009°09'3 6.0
2018-Jul-16 10:29N 53°56' E 009°13'4 8.1
2018-Jul-16 10:00N 53°59' E 009°17'4 8.1
2018-Jul-16 09:30N 54°03' E 009°18'4 8.2
2018-Jul-16 09:00N 54°07' E 009°20'4 7.6
2018-Jul-16 08:30N 54°10' E 009°24'4 8.0
2018-Jul-16 08:00N 54°11' E 009°30'4 8.1
2018-Jul-16 07:30N 54°14' E 009°36'4 7.7
2018-Jul-16 07:00N 54°17' E 009°39'3 6.9
2018-Jul-16 06:30N 54°20' E 009°43'4 8.1
2018-Jul-16 06:00N 54°22' E 009°49'4 7.9
2018-Jul-16 05:30N 54°21' E 009°55'9 4.5
2018-Jul-16 03:32N 54°22' E 010°10'0 5.9
2018-Jul-16 03:30N 54°22' E 010°11'510.2
2018-Jul-16 02:59N 54°27' E 010°14'1411.6
2018-Jul-16 01:45N 54°34' E 010°35'311.9
2018-Jul-16 01:31N 54°35' E 010°40'611.9
2018-Jul-16 01:01N 54°35' E 010°51'611.6
2018-Jul-16 00:30N 54°36' E 011°01'612.8
2018-Jul-16 00:00N 54°36' E 011°12'612.9
2018-Jul-15 23:30N 54°33' E 011°22'714.0
2018-Jul-15 23:00N 54°30' E 011°32'815.0
2018-Jul-15 22:30N 54°27' E 011°44'917.1
2018-Jul-15 22:00N 54°27' E 011°59'815.3
2018-Jul-15 21:30N 54°30' E 012°11'917.2
2018-Jul-15 21:00N 54°38' E 012°17'1017.1
2018-Jul-15 20:25N 54°43' E 012°32'916.8
2018-Jul-15 19:52N 54°48' E 012°45'616.7
2018-Jul-15 19:29N 54°50' E 012°56'816.9
2018-Jul-15 18:59N 54°52' E 013°10'2416.6
2018-Jul-15 17:33N 55°01' E 013°48'216.4
2018-Jul-15 17:28N 55°01' E 013°51'816.4
2018-Jul-15 16:58N 55°04' E 014°04'817.0
2018-Jul-15 16:30N 55°10' E 014°13'816.9
2018-Jul-15 16:00N 55°16' E 014°23'917.3
2018-Jul-15 15:30N 55°24' E 014°31'816.9
2018-Jul-15 15:00N 55°29' E 014°42'817.0
2018-Jul-15 14:30N 55°34' E 014°54'917.0
2018-Jul-15 14:00N 55°38' E 015°08'917.0
2018-Jul-15 13:30N 55°42' E 015°21'816.8
2018-Jul-15 13:00N 55°46' E 015°34'917.1
2018-Jul-15 12:30N 55°50' E 015°48'917.3
2018-Jul-15 12:00N 55°54' E 016°01'917.2
2018-Jul-15 11:30N 55°58' E 016°15'917.4
2018-Jul-15 11:00N 56°02' E 016°28'917.5
2018-Jul-15 10:30N 56°07' E 016°42'917.6
2018-Jul-15 10:00N 56°12' E 016°54'917.6
2018-Jul-15 09:30N 56°18' E 017°06'7616.9
2018-Jul-15 05:00N 57°06' E 018°54'9017.6 010 / 71016.010.8 18.516.017.0
2018-Jul-14 23:54N 57°39' E 021°29'716.8
2018-Jul-14 23:30N 57°40' E 021°41'55 3.0
2018-Jul-14 05:00N 57°24' E 023°18'19412.9 020 / 251013.610.8 20.017.617.0
2018-Jul-13 13:54N 59°26' E 018°30'3 7.5
2018-Jul-13 13:30N 59°25' E 018°24'4 4.9
2018-Jul-13 12:44N 59°22' E 018°21'312.0
2018-Jul-13 12:30N 59°21' E 018°15'4 7.7
2018-Jul-13 12:00N 59°21' E 018°08'0 0.6
2018-Jul-13 11:26N 59°21' E 018°07'0 0.0
2018-Jul-13 10:49N 59°21' E 018°07'0 0.0
2018-Jul-13 10:28N 59°21' E 018°07'0 0.0
2018-Jul-13 09:50N 59°21' E 018°07'0 0.0
2018-Jul-13 09:19N 59°21' E 018°07'0 0.0
2018-Jul-13 08:55N 59°21' E 018°07'0 0.0
2018-Jul-13 08:28N 59°21' E 018°07'0 0.0
2018-Jul-13 07:55N 59°21' E 018°07'0 0.0
2018-Jul-13 07:26N 59°21' E 018°07'0 0.0
2018-Jul-13 06:58N 59°21' E 018°07'0 0.0
2018-Jul-13 06:25N 59°21' E 018°07'0 0.0
2018-Jul-13 05:57N 59°21' E 018°07'0 0.0
2018-Jul-13 05:21N 59°21' E 018°07'0 0.0
2018-Jul-13 04:57N 59°21' E 018°07'0 0.0
2018-Jul-13 04:27N 59°21' E 018°07'0 0.0
2018-Jul-13 03:57N 59°21' E 018°07'0 0.0
2018-Jul-13 03:30N 59°21' E 018°07'0 0.0
2018-Jul-13 02:57N 59°21' E 018°07'0 0.0
2018-Jul-13 02:30N 59°21' E 018°07'0 0.0
2018-Jul-13 02:00N 59°21' E 018°07'0 0.0
2018-Jul-13 01:30N 59°21' E 018°07'0 0.0
2018-Jul-13 00:54N 59°21' E 018°07'0 0.0
2018-Jul-13 00:30N 59°21' E 018°07'0 0.0
2018-Jul-13 00:00N 59°21' E 018°07'0 0.0
2018-Jul-12 23:30N 59°21' E 018°07'0 0.0
2018-Jul-12 23:00N 59°21' E 018°07'0 0.0
2018-Jul-12 22:30N 59°21' E 018°07'0 0.0
2018-Jul-12 22:00N 59°21' E 018°07'0 0.0
2018-Jul-12 21:27N 59°21' E 018°07'0 0.0
2018-Jul-12 21:00N 59°21' E 018°07'0 0.0
2018-Jul-12 20:30N 59°21' E 018°07'0 0.0
2018-Jul-12 20:00N 59°21' E 018°07'0 0.0
2018-Jul-12 19:30N 59°21' E 018°07'0 0.0
2018-Jul-12 19:00N 59°21' E 018°07'0 0.0
2018-Jul-12 18:30N 59°21' E 018°07'0 0.0
2018-Jul-12 17:51N 59°21' E 018°07'0 0.0
2018-Jul-12 17:27N 59°21' E 018°07'0 0.0
2018-Jul-12 17:00N 59°21' E 018°07'0 0.0
2018-Jul-12 16:27N 59°21' E 018°07'0 0.0
2018-Jul-12 16:00N 59°21' E 018°07'0 0.0
2018-Jul-12 15:27N 59°21' E 018°07'0 0.0
2018-Jul-12 14:57N 59°21' E 018°07'0 0.0
2018-Jul-12 14:29N 59°21' E 018°07'0 0.0
2018-Jul-12 13:59N 59°21' E 018°07'0 0.0
2018-Jul-12 13:29N 59°21' E 018°07'0 0.0
2018-Jul-12 12:59N 59°21' E 018°07'0 0.0
2018-Jul-12 12:23N 59°21' E 018°07'0 0.0
2018-Jul-12 11:59N 59°21' E 018°07'0 0.0
2018-Jul-12 11:17N 59°21' E 018°07'0 0.0
2018-Jul-12 10:59N 59°21' E 018°07'0 0.0
2018-Jul-12 10:29N 59°21' E 018°07'0 0.0
2018-Jul-12 09:59N 59°21' E 018°07'0 0.0
2018-Jul-12 09:29N 59°21' E 018°07'0 0.0
2018-Jul-12 08:59N 59°21' E 018°07'0 0.0
2018-Jul-12 08:29N 59°21' E 018°07'0 0.0
2018-Jul-12 07:58N 59°21' E 018°07'0 0.0
2018-Jul-12 07:28N 59°21' E 018°07'0 0.0
2018-Jul-12 06:58N 59°21' E 018°07'0 0.7
2018-Jul-12 06:30N 59°21' E 018°08'4 7.0
2018-Jul-12 06:00N 59°21' E 018°15'510.0
2018-Jul-12 05:30N 59°22' E 018°24'3 6.0
2018-Jul-12 05:00N 59°25' E 018°25'11 9.5
2018-Jul-12 03:47N 59°22' E 018°46'611.9
2018-Jul-12 03:16N 59°17' E 018°54'6014.4
2018-Jul-11 23:06N 59°20' E 020°52'214.7
2018-Jul-11 22:59N 59°20' E 020°55'714.9
2018-Jul-11 22:30N 59°21' E 021°09'715.0
2018-Jul-11 22:00N 59°22' E 021°23'714.9
2018-Jul-11 21:30N 59°24' E 021°38'714.9
2018-Jul-11 21:00N 59°25' E 021°52'713.7
2018-Jul-11 20:30N 59°27' E 022°05'815.9
2018-Jul-11 20:00N 59°29' E 022°20'917.3
2018-Jul-11 19:30N 59°31' E 022°37'917.4
2018-Jul-11 19:00N 59°33' E 022°53'917.3
2018-Jul-11 18:30N 59°35' E 023°10'917.3
2018-Jul-11 18:00N 59°38' E 023°26'917.7
2018-Jul-11 17:30N 59°41' E 023°43'917.7
2018-Jul-11 17:00N 59°43' E 023°59'917.9
2018-Jul-11 16:30N 59°46' E 024°17'917.7
2018-Jul-11 16:00N 59°48' E 024°34'917.3
2018-Jul-11 15:30N 59°53' E 024°48'814.9
2018-Jul-11 14:57N 59°60' E 024°58'613.9
2018-Jul-11 14:30N 60°06' E 024°59'4 8.6
2018-Jul-11 14:00N 60°10' E 024°58'0 0.1
2018-Jul-11 13:28N 60°10' E 024°58'0 0.0
2018-Jul-11 12:58N 60°10' E 024°58'0 0.0
2018-Jul-11 12:28N 60°10' E 024°58'0 0.0
2018-Jul-11 11:55N 60°10' E 024°58'0 0.0
2018-Jul-11 11:28N 60°10' E 024°58'0 0.0
2018-Jul-11 10:58N 60°10' E 024°58'0 0.0
2018-Jul-11 10:28N 60°10' E 024°58'0 0.0
2018-Jul-11 09:58N 60°10' E 024°58'0 0.0
2018-Jul-11 09:28N 60°10' E 024°58'0 0.0
2018-Jul-11 08:58N 60°10' E 024°58'0 0.0
2018-Jul-11 08:28N 60°10' E 024°58'0 0.0
2018-Jul-11 07:58N 60°10' E 024°58'0 0.0
2018-Jul-11 07:28N 60°10' E 024°58'0 0.0
2018-Jul-11 06:55N 60°10' E 024°58'0 0.0
2018-Jul-11 06:28N 60°10' E 024°58'0 0.0
2018-Jul-11 05:55N 60°10' E 024°58'0 0.0
2018-Jul-11 05:28N 60°10' E 024°58'0 0.0
2018-Jul-11 04:58N 60°10' E 024°58'0 0.0
2018-Jul-11 04:28N 60°10' E 024°58'0 0.2
2018-Jul-11 04:00N 60°10' E 024°58'3 5.3
2018-Jul-11 03:31N 60°07' E 024°59'611.6
2018-Jul-11 03:00N 60°02' E 024°57'714.1
2018-Jul-11 02:30N 59°55' E 024°59'715.0
2018-Jul-11 02:00N 59°54' E 025°14'4233.9
2018-Jul-11 02:00N 59°54' E 025°06'1225.1 020 / 61024.010.8 15.511.816.0
2018-Jul-11 01:30N 59°55' E 025°31'917.7
2018-Jul-11 00:59N 59°55' E 025°49'1218.9
2018-Jul-11 00:20N 59°58' E 026°12'617.7
2018-Jul-11 00:00N 60°00' E 026°24'015.6 080 / 91021.310.8 16.012.416.0
2018-Jul-10 23:58N 60°00' E 026°25'715.7
2018-Jul-10 23:30N 60°01' E 026°39'917.2
2018-Jul-10 23:00N 59°60' E 026°56'917.1
2018-Jul-10 22:30N 60°02' E 027°13'816.6
2018-Jul-10 22:00N 60°06' E 027°27'918.1
2018-Jul-10 21:30N 60°11' E 027°42'816.1
2018-Jul-10 21:01N 60°10' E 027°58'917.4
2018-Jul-10 20:30N 60°08' E 028°15'917.2
2018-Jul-10 20:00N 60°04' E 028°30'917.5
2018-Jul-10 19:30N 60°03' E 028°47'3513.4
2018-Jul-10 16:53N 59°56' E 029°56'411.1
2018-Jul-10 16:29N 59°56' E 030°05'3 6.6
2018-Jul-10 15:58N 59°57' E 030°11'0 0.0
2018-Jul-10 14:29N 59°57' E 030°11'0 0.0
2018-Jul-10 13:07N 59°57' E 030°11'0 0.0
2018-Jul-10 12:41N 59°57' E 030°11'0 0.0
2018-Jul-10 10:23N 59°57' E 030°11'0 0.0
2018-Jul-10 09:32N 59°57' E 030°11'0 0.0
2018-Jul-10 09:20N 59°57' E 030°11'0 0.0
2018-Jul-10 09:00N 59°57' E 030°11'0 0.0
2018-Jul-10 07:42N 59°57' E 030°11'0 0.0
2018-Jul-10 07:30N 59°57' E 030°11'0 0.0
2018-Jul-10 06:54N 59°57' E 030°11'0 0.0
2018-Jul-10 06:15N 59°57' E 030°11'0 0.0
2018-Jul-10 05:52N 59°57' E 030°11'0 0.0
2018-Jul-10 05:29N 59°57' E 030°11'0 0.0
2018-Jul-10 04:53N 59°57' E 030°11'0 0.0
2018-Jul-10 04:29N 59°57' E 030°11'0 0.0
2018-Jul-10 03:53N 59°57' E 030°11'0 0.0
2018-Jul-10 03:28N 59°57' E 030°11'0 0.0
2018-Jul-10 02:50N 59°57' E 030°11'0 0.0
2018-Jul-10 02:28N 59°57' E 030°11'0 0.0
2018-Jul-10 01:56N 59°57' E 030°11'0 0.0
2018-Jul-10 01:25N 59°57' E 030°11'0 0.0
2018-Jul-09 23:51N 59°57' E 030°11'0 0.0
2018-Jul-09 23:30N 59°57' E 030°11'0 0.0
2018-Jul-09 23:00N 59°57' E 030°11'0 0.0
2018-Jul-09 22:30N 59°57' E 030°11'0 0.0
2018-Jul-09 22:00N 59°57' E 030°11'0 0.0
2018-Jul-09 21:23N 59°57' E 030°11'0 0.0
2018-Jul-09 20:16N 59°57' E 030°11'0 0.0
2018-Jul-09 18:10N 59°57' E 030°11'0 0.0
2018-Jul-09 17:48N 59°57' E 030°11'0 0.0
2018-Jul-09 17:27N 59°57' E 030°11'0 0.0
2018-Jul-09 17:00N 59°57' E 030°11'0 0.0
2018-Jul-09 16:27N 59°57' E 030°11'0 0.0
2018-Jul-09 15:21N 59°57' E 030°11'0 0.0
2018-Jul-09 15:00N 59°57' E 030°11'0 0.0
2018-Jul-09 14:17N 59°57' E 030°11'0 0.0
2018-Jul-09 13:55N 59°57' E 030°11'0 0.0
2018-Jul-09 12:42N 59°57' E 030°11'0 0.0
2018-Jul-09 12:24N 59°57' E 030°11'0 0.0
2018-Jul-09 07:26N 59°57' E 030°11'0 0.0
2018-Jul-09 04:02N 59°57' E 030°11'0 0.0
2018-Jul-09 04:00N 59°57' E 030°11'0 0.5
2018-Jul-09 03:30N 59°57' E 030°11'4 7.7
2018-Jul-09 02:59N 59°56' E 030°03'5 9.2
2018-Jul-09 02:30N 59°56' E 029°54'  
Track history (hours):
 
Tides and Currents Weather Stations Pressure Air Temp Water Temp Dewpoint Dewpoint Depression Visibility Wind Speed Wind Dir Waves Ship Positions

Pacific Princess (Bermuda)

Last reported at 2018-Jul-19 02:07 UTC. Time now 2018-Jul-19 05:56 UTC.
Position N 53°31' E 003°00'.

Length 180.5 m; beam 25.6 m; draft 6 m.

Type: Passenger vessel. MMSI: 310504000.

Date/timePositionNaut miles runAvg speedWind from/ knotsBaromVisibWave heightAir tempDewpointWater temp
2018-Jul-19 02:07N 53°31' E 003°00'216.2
2018-Jul-19 02:00N 53°29' E 002°59'816.2
2018-Jul-19 01:29N 53°22' E 002°53'816.0
2018-Jul-19 01:00N 53°15' E 002°48'815.9
2018-Jul-19 00:30N 53°07' E 002°43'815.5
2018-Jul-19 00:00N 52°60' E 002°41'815.9
2018-Jul-18 23:30N 52°52' E 002°42'816.1
2018-Jul-18 23:00N 52°44' E 002°42'816.6
2018-Jul-18 22:31N 52°36' E 002°45'816.8
2018-Jul-18 22:00N 52°27' E 002°42'917.4
2018-Jul-18 21:30N 52°19' E 002°39'917.9
2018-Jul-18 21:00N 52°10' E 002°38'918.1
2018-Jul-18 20:30N 52°01' E 002°37'918.1
2018-Jul-18 20:00N 51°52' E 002°38'917.6
2018-Jul-18 19:30N 51°43' E 002°35'918.1
2018-Jul-18 19:00N 51°37' E 002°25'918.3
2018-Jul-18 18:30N 51°30' E 002°14'918.7
2018-Jul-18 18:00N 51°23' E 002°05'918.7
2018-Jul-18 17:30N 51°17' E 001°54'1019.4
2018-Jul-18 17:00N 51°09' E 001°44'1019.4
2018-Jul-18 16:30N 51°03' E 001°32'816.0
2018-Jul-18 16:00N 51°06' E 001°21'1 2.2
2018-Jul-18 15:29N 51°07' E 001°19'0 0.0
2018-Jul-18 14:43N 51°07' E 001°19'0 0.0
2018-Jul-18 14:24N 51°07' E 001°19'0 0.0
2018-Jul-18 13:25N 51°07' E 001°19'0 0.0
2018-Jul-18 12:58N 51°07' E 001°19'0 0.0
2018-Jul-18 12:28N 51°07' E 001°19'0 0.0
2018-Jul-18 11:58N 51°07' E 001°19'0 0.0
2018-Jul-18 11:25N 51°07' E 001°19'0 0.0
2018-Jul-18 10:22N 51°07' E 001°19'0 0.0
2018-Jul-18 09:58N 51°07' E 001°19'0 0.0
2018-Jul-18 09:28N 51°07' E 001°19'0 0.0
2018-Jul-18 08:58N 51°07' E 001°19'0 0.0
2018-Jul-18 08:28N 51°07' E 001°19'0 0.0
2018-Jul-18 07:58N 51°07' E 001°19'0 0.0
2018-Jul-18 07:25N 51°07' E 001°19'0 0.0
2018-Jul-18 06:58N 51°07' E 001°19'0 0.0
2018-Jul-18 06:28N 51°07' E 001°19'0 0.0
2018-Jul-18 05:58N 51°07' E 001°19'0 0.0
2018-Jul-18 05:28N 51°07' E 001°19'0 0.0
2018-Jul-18 04:55N 51°07' E 001°19'0 0.2
2018-Jul-18 04:30N 51°07' E 001°19'3 5.4
2018-Jul-18 04:00N 51°08' E 001°24'510.7
2018-Jul-18 03:30N 51°09' E 001°32'713.1
2018-Jul-18 03:00N 51°12' E 001°41'611.9
2018-Jul-18 02:30N 51°17' E 001°46'713.9
2018-Jul-18 02:00N 51°23' E 001°51'714.7
2018-Jul-18 01:30N 51°29' E 001°57'815.1
2018-Jul-18 01:00N 51°35' E 002°06'918.9
2018-Jul-18 00:30N 51°41' E 002°17'1019.1
2018-Jul-18 00:00N 51°49' E 002°27'918.8
2018-Jul-17 23:30N 51°56' E 002°36'1120.1
2018-Jul-17 22:56N 52°04' E 002°50'919.8
2018-Jul-17 22:30N 52°10' E 002°60'919.1
2018-Jul-17 22:00N 52°16' E 003°12'1018.9
2018-Jul-17 21:29N 52°22' E 003°25'918.6
2018-Jul-17 20:59N 52°27' E 003°37'918.0
2018-Jul-17 20:29N 52°31' E 003°51'918.2
2018-Jul-17 20:00N 52°31' E 004°05'918.2
2018-Jul-17 19:30N 52°30' E 004°20'714.0
2018-Jul-17 19:00N 52°28' E 004°31'3 6.8
2018-Jul-17 18:30N 52°28' E 004°37'1 1.7
2018-Jul-17 18:00N 52°28' E 004°38'0 0.6
2018-Jul-17 17:30N 52°28' E 004°38'2 4.3
2018-Jul-17 17:00N 52°27' E 004°41'3 6.1
2018-Jul-17 16:30N 52°26' E 004°46'3 6.4
2018-Jul-17 16:00N 52°25' E 004°51'3 6.3
2018-Jul-17 15:30N 52°23' E 004°55'0 0.0
2018-Jul-17 14:59N 52°23' E 004°55'0 0.0
2018-Jul-17 14:29N 52°23' E 004°55'0 0.0
2018-Jul-17 14:00N 52°23' E 004°55'0 0.0
2018-Jul-17 13:30N 52°23' E 004°55'0 0.0
2018-Jul-17 13:00N 52°23' E 004°55'0 0.0
2018-Jul-17 12:30N 52°23' E 004°55'0 0.0
2018-Jul-17 12:00N 52°23' E 004°55'0 0.0
2018-Jul-17 11:30N 52°23' E 004°55'0 0.0
2018-Jul-17 11:00N 52°23' E 004°55'0 0.0
2018-Jul-17 10:30N 52°23' E 004°55'0 0.0
2018-Jul-17 10:00N 52°23' E 004°55'0 0.0
2018-Jul-17 09:30N 52°23' E 004°55'0 0.0
2018-Jul-17 09:00N 52°23' E 004°55'0 0.1
2018-Jul-17 08:30N 52°23' E 004°55'2 3.9
2018-Jul-17 08:00N 52°24' E 004°53'4 7.4
2018-Jul-17 07:30N 52°26' E 004°47'4 8.1
2018-Jul-17 07:00N 52°27' E 004°41'3 5.7
2018-Jul-17 06:30N 52°28' E 004°37'1 1.6
2018-Jul-17 06:00N 52°28' E 004°35'1 3.0
2018-Jul-17 05:30N 52°28' E 004°33'2 4.2
2018-Jul-17 05:00N 52°28' E 004°29'1 2.0
2018-Jul-17 04:30N 52°28' E 004°28'3 6.9
2018-Jul-17 04:00N 52°29' E 004°23'510.3
2018-Jul-17 03:30N 52°29' E 004°14'611.7
2018-Jul-17 03:00N 52°32' E 004°07'714.6
2018-Jul-17 02:30N 52°39' E 004°03'815.1
2018-Jul-17 02:01N 52°47' E 003°59'1714.0
2018-Jul-17 00:46N 53°02' E 004°12'415.4
2018-Jul-17 00:30N 53°05' E 004°17'1514.6
2018-Jul-16 23:30N 53°17' E 004°30'714.7
2018-Jul-16 23:00N 53°24' E 004°34'713.8
2018-Jul-16 22:30N 53°29' E 004°42'713.9
2018-Jul-16 22:00N 53°32' E 004°53'713.7
2018-Jul-16 21:30N 53°34' E 005°04'713.6
2018-Jul-16 21:00N 53°37' E 005°15'713.4
2018-Jul-16 20:30N 53°39' E 005°25'713.6
2018-Jul-16 20:00N 53°41' E 005°36'4815.8
2018-Jul-16 17:00N 53°54' E 006°54'3021.8 030 / 101016.410.8 19.516.2
2018-Jul-16 15:37N 54°03' E 007°43'217.9
2018-Jul-16 15:29N 54°03' E 007°47'917.8
2018-Jul-16 14:57N 54°01' E 008°03'714.9
2018-Jul-16 14:29N 53°60' E 008°15'713.8
2018-Jul-16 14:00N 53°59' E 008°26'815.6
2018-Jul-16 13:30N 53°57' E 008°38'713.2
2018-Jul-16 13:00N 53°51' E 008°45'611.7
2018-Jul-16 12:30N 53°51' E 008°55'612.9
2018-Jul-16 12:00N 53°52' E 009°05'2 4.9
2018-Jul-16 11:30N 53°54' E 009°09'0 0.4
2018-Jul-16 11:00N 53°54' E 009°09'3 6.0
2018-Jul-16 10:29N 53°56' E 009°13'4 8.1
2018-Jul-16 10:00N 53°59' E 009°17'4 8.1
2018-Jul-16 09:30N 54°03' E 009°18'4 8.2
2018-Jul-16 09:00N 54°07' E 009°20'4 7.6
2018-Jul-16 08:30N 54°10' E 009°24'4 8.0
2018-Jul-16 08:00N 54°11' E 009°30'4 8.1
2018-Jul-16 07:30N 54°14' E 009°36'4 7.7
2018-Jul-16 07:00N 54°17' E 009°39'3 6.9
2018-Jul-16 06:30N 54°20' E 009°43'4 8.1
2018-Jul-16 06:00N 54°22' E 009°49'4 7.9
2018-Jul-16 05:30N 54°21' E 009°55'9 4.5
2018-Jul-16 03:32N 54°22' E 010°10'0 5.9
2018-Jul-16 03:30N 54°22' E 010°11'510.2
2018-Jul-16 02:59N 54°27' E 010°14'1411.6
2018-Jul-16 01:45N 54°34' E 010°35'311.9
2018-Jul-16 01:31N 54°35' E 010°40'611.9
2018-Jul-16 01:01N 54°35' E 010°51'611.6
2018-Jul-16 00:30N 54°36' E 011°01'612.8
2018-Jul-16 00:00N 54°36' E 011°12'612.9
2018-Jul-15 23:30N 54°33' E 011°22'714.0
2018-Jul-15 23:00N 54°30' E 011°32'815.0
2018-Jul-15 22:30N 54°27' E 011°44'917.1
2018-Jul-15 22:00N 54°27' E 011°59'815.3
2018-Jul-15 21:30N 54°30' E 012°11'917.2
2018-Jul-15 21:00N 54°38' E 012°17'1017.1
2018-Jul-15 20:25N 54°43' E 012°32'916.8
2018-Jul-15 19:52N 54°48' E 012°45'616.7
2018-Jul-15 19:29N 54°50' E 012°56'816.9
2018-Jul-15 18:59N 54°52' E 013°10'2416.6
2018-Jul-15 17:33N 55°01' E 013°48'216.4
2018-Jul-15 17:28N 55°01' E 013°51'816.4
2018-Jul-15 16:58N 55°04' E 014°04'817.0
2018-Jul-15 16:30N 55°10' E 014°13'816.9
2018-Jul-15 16:00N 55°16' E 014°23'917.3
2018-Jul-15 15:30N 55°24' E 014°31'816.9
2018-Jul-15 15:00N 55°29' E 014°42'817.0
2018-Jul-15 14:30N 55°34' E 014°54'917.0
2018-Jul-15 14:00N 55°38' E 015°08'917.0
2018-Jul-15 13:30N 55°42' E 015°21'816.8
2018-Jul-15 13:00N 55°46' E 015°34'917.1
2018-Jul-15 12:30N 55°50' E 015°48'917.3
2018-Jul-15 12:00N 55°54' E 016°01'917.2
2018-Jul-15 11:30N 55°58' E 016°15'917.4
2018-Jul-15 11:00N 56°02' E 016°28'917.5
2018-Jul-15 10:30N 56°07' E 016°42'917.6
2018-Jul-15 10:00N 56°12' E 016°54'917.6
2018-Jul-15 09:30N 56°18' E 017°06'7616.9
2018-Jul-15 05:00N 57°06' E 018°54'9017.6 010 / 71016.010.8 18.516.017.0
2018-Jul-14 23:54N 57°39' E 021°29'716.8
2018-Jul-14 23:30N 57°40' E 021°41'55 3.0
2018-Jul-14 05:00N 57°24' E 023°18'19412.9 020 / 251013.610.8 20.017.617.0
2018-Jul-13 13:54N 59°26' E 018°30'3 7.5
2018-Jul-13 13:30N 59°25' E 018°24'4 4.9
2018-Jul-13 12:44N 59°22' E 018°21'312.0
2018-Jul-13 12:30N 59°21' E 018°15'4 7.7
2018-Jul-13 12:00N 59°21' E 018°08'0 0.6
2018-Jul-13 11:26N 59°21' E 018°07'0 0.0
2018-Jul-13 10:49N 59°21' E 018°07'0 0.0
2018-Jul-13 10:28N 59°21' E 018°07'0 0.0
2018-Jul-13 09:50N 59°21' E 018°07'0 0.0
2018-Jul-13 09:19N 59°21' E 018°07'0 0.0
2018-Jul-13 08:55N 59°21' E 018°07'0 0.0
2018-Jul-13 08:28N 59°21' E 018°07'0 0.0
2018-Jul-13 07:55N 59°21' E 018°07'0 0.0
2018-Jul-13 07:26N 59°21' E 018°07'0 0.0
2018-Jul-13 06:58N 59°21' E 018°07'0 0.0
2018-Jul-13 06:25N 59°21' E 018°07'0 0.0
2018-Jul-13 05:57N 59°21' E 018°07'0 0.0
2018-Jul-13 05:21N 59°21' E 018°07'0 0.0
2018-Jul-13 04:57N 59°21' E 018°07'0 0.0
2018-Jul-13 04:27N 59°21' E 018°07'0 0.0
2018-Jul-13 03:57N 59°21' E 018°07'0 0.0
2018-Jul-13 03:30N 59°21' E 018°07'0 0.0
2018-Jul-13 02:57N 59°21' E 018°07'0 0.0
2018-Jul-13 02:30N 59°21' E 018°07'0 0.0
2018-Jul-13 02:00N 59°21' E 018°07'0 0.0
2018-Jul-13 01:30N 59°21' E 018°07'0 0.0
2018-Jul-13 00:54N 59°21' E 018°07'0 0.0
2018-Jul-13 00:30N 59°21' E 018°07'0 0.0
2018-Jul-13 00:00N 59°21' E 018°07'0 0.0
2018-Jul-12 23:30N 59°21' E 018°07'0 0.0
2018-Jul-12 23:00N 59°21' E 018°07'0 0.0
2018-Jul-12 22:30N 59°21' E 018°07'0 0.0
2018-Jul-12 22:00N 59°21' E 018°07'0 0.0
2018-Jul-12 21:27N 59°21' E 018°07'0 0.0
2018-Jul-12 21:00N 59°21' E 018°07'0 0.0
2018-Jul-12 20:30N 59°21' E 018°07'0 0.0
2018-Jul-12 20:00N 59°21' E 018°07'0 0.0
2018-Jul-12 19:30N 59°21' E 018°07'0 0.0
2018-Jul-12 19:00N 59°21' E 018°07'0 0.0
2018-Jul-12 18:30N 59°21' E 018°07'0 0.0
2018-Jul-12 17:51N 59°21' E 018°07'0 0.0
2018-Jul-12 17:27N 59°21' E 018°07'0 0.0
2018-Jul-12 17:00N 59°21' E 018°07'0 0.0
2018-Jul-12 16:27N 59°21' E 018°07'0 0.0
2018-Jul-12 16:00N 59°21' E 018°07'0 0.0
2018-Jul-12 15:27N 59°21' E 018°07'0 0.0
2018-Jul-12 14:57N 59°21' E 018°07'0 0.0
2018-Jul-12 14:29N 59°21' E 018°07'0 0.0
2018-Jul-12 13:59N 59°21' E 018°07'0 0.0
2018-Jul-12 13:29N 59°21' E 018°07'0 0.0
2018-Jul-12 12:59N 59°21' E 018°07'0 0.0
2018-Jul-12 12:23N 59°21' E 018°07'0 0.0
2018-Jul-12 11:59N 59°21' E 018°07'0 0.0
2018-Jul-12 11:17N 59°21' E 018°07'0 0.0
2018-Jul-12 10:59N 59°21' E 018°07'0 0.0
2018-Jul-12 10:29N 59°21' E 018°07'0 0.0
2018-Jul-12 09:59N 59°21' E 018°07'0 0.0
2018-Jul-12 09:29N 59°21' E 018°07'0 0.0
2018-Jul-12 08:59N 59°21' E 018°07'0 0.0
2018-Jul-12 08:29N 59°21' E 018°07'0 0.0
2018-Jul-12 07:58N 59°21' E 018°07'0 0.0
2018-Jul-12 07:28N 59°21' E 018°07'0 0.0
2018-Jul-12 06:58N 59°21' E 018°07'0 0.7
2018-Jul-12 06:30N 59°21' E 018°08'4 7.0
2018-Jul-12 06:00N 59°21' E 018°15'510.0
2018-Jul-12 05:30N 59°22' E 018°24'3 6.0
2018-Jul-12 05:00N 59°25' E 018°25'11 9.5
2018-Jul-12 03:47N 59°22' E 018°46'611.9
2018-Jul-12 03:16N 59°17' E 018°54'6014.4
2018-Jul-11 23:06N 59°20' E 020°52'214.7
2018-Jul-11 22:59N 59°20' E 020°55'714.9
2018-Jul-11 22:30N 59°21' E 021°09'715.0
2018-Jul-11 22:00N 59°22' E 021°23'714.9
2018-Jul-11 21:30N 59°24' E 021°38'714.9
2018-Jul-11 21:00N 59°25' E 021°52'713.7
2018-Jul-11 20:30N 59°27' E 022°05'815.9
2018-Jul-11 20:00N 59°29' E 022°20'917.3
2018-Jul-11 19:30N 59°31' E 022°37'917.4
2018-Jul-11 19:00N 59°33' E 022°53'917.3
2018-Jul-11 18:30N 59°35' E 023°10'917.3
2018-Jul-11 18:00N 59°38' E 023°26'917.7
2018-Jul-11 17:30N 59°41' E 023°43'917.7
2018-Jul-11 17:00N 59°43' E 023°59'917.9
2018-Jul-11 16:30N 59°46' E 024°17'917.7
2018-Jul-11 16:00N 59°48' E 024°34'917.3
2018-Jul-11 15:30N 59°53' E 024°48'814.9
2018-Jul-11 14:57N 59°60' E 024°58'613.9
2018-Jul-11 14:30N 60°06' E 024°59'4 8.6
2018-Jul-11 14:00N 60°10' E 024°58'0 0.1
2018-Jul-11 13:28N 60°10' E 024°58'0 0.0
2018-Jul-11 12:58N 60°10' E 024°58'0 0.0
2018-Jul-11 12:28N 60°10' E 024°58'0 0.0
2018-Jul-11 11:55N 60°10' E 024°58'0 0.0
2018-Jul-11 11:28N 60°10' E 024°58'0 0.0
2018-Jul-11 10:58N 60°10' E 024°58'0 0.0
2018-Jul-11 10:28N 60°10' E 024°58'0 0.0
2018-Jul-11 09:58N 60°10' E 024°58'0 0.0
2018-Jul-11 09:28N 60°10' E 024°58'0 0.0
2018-Jul-11 08:58N 60°10' E 024°58'0 0.0
2018-Jul-11 08:28N 60°10' E 024°58'0 0.0
2018-Jul-11 07:58N 60°10' E 024°58'0 0.0
2018-Jul-11 07:28N 60°10' E 024°58'0 0.0
2018-Jul-11 06:55N 60°10' E 024°58'0 0.0
2018-Jul-11 06:28N 60°10' E 024°58'0 0.0
2018-Jul-11 05:55N 60°10' E 024°58'0 0.0
2018-Jul-11 05:28N 60°10' E 024°58'0 0.0
2018-Jul-11 04:58N 60°10' E 024°58'0 0.0
2018-Jul-11 04:28N 60°10' E 024°58'0 0.2
2018-Jul-11 04:00N 60°10' E 024°58'3 5.3
2018-Jul-11 03:31N 60°07' E 024°59'611.6
2018-Jul-11 03:00N 60°02' E 024°57'714.1
2018-Jul-11 02:30N 59°55' E 024°59'715.0
2018-Jul-11 02:00N 59°54' E 025°14'4233.9
2018-Jul-11 02:00N 59°54' E 025°06'1225.1 020 / 61024.010.8 15.511.816.0
2018-Jul-11 01:30N 59°55' E 025°31'917.7
2018-Jul-11 00:59N 59°55' E 025°49'1218.9
2018-Jul-11 00:20N 59°58' E 026°12'617.7
2018-Jul-11 00:00N 60°00' E 026°24'015.6 080 / 91021.310.8 16.012.416.0
2018-Jul-10 23:58N 60°00' E 026°25'715.7
2018-Jul-10 23:30N 60°01' E 026°39'917.2
2018-Jul-10 23:00N 59°60' E 026°56'917.1
2018-Jul-10 22:30N 60°02' E 027°13'816.6
2018-Jul-10 22:00N 60°06' E 027°27'918.1
2018-Jul-10 21:30N 60°11' E 027°42'816.1
2018-Jul-10 21:01N 60°10' E 027°58'917.4
2018-Jul-10 20:30N 60°08' E 028°15'917.2
2018-Jul-10 20:00N 60°04' E 028°30'917.5
2018-Jul-10 19:30N 60°03' E 028°47'3513.4
2018-Jul-10 16:53N 59°56' E 029°56'411.1
2018-Jul-10 16:29N 59°56' E 030°05'3 6.6
2018-Jul-10 15:58N 59°57' E 030°11'0 0.0
2018-Jul-10 14:29N 59°57' E 030°11'0 0.0
2018-Jul-10 13:07N 59°57' E 030°11'0 0.0
2018-Jul-10 12:41N 59°57' E 030°11'0 0.0
2018-Jul-10 10:23N 59°57' E 030°11'0 0.0
2018-Jul-10 09:32N 59°57' E 030°11'0 0.0
2018-Jul-10 09:20N 59°57' E 030°11'0 0.0
2018-Jul-10 09:00N 59°57' E 030°11'0 0.0
2018-Jul-10 07:42N 59°57' E 030°11'0 0.0
2018-Jul-10 07:30N 59°57' E 030°11'0 0.0
2018-Jul-10 06:54N 59°57' E 030°11'0 0.0
2018-Jul-10 06:15N 59°57' E 030°11'0 0.0
2018-Jul-10 05:52N 59°57' E 030°11'0 0.0
2018-Jul-10 05:29N 59°57' E 030°11'0 0.0
2018-Jul-10 04:53N 59°57' E 030°11'0 0.0
2018-Jul-10 04:29N 59°57' E 030°11'0 0.0
2018-Jul-10 03:53N 59°57' E 030°11'0 0.0
2018-Jul-10 03:28N 59°57' E 030°11'0 0.0
2018-Jul-10 02:50N 59°57' E 030°11'0 0.0
2018-Jul-10 02:28N 59°57' E 030°11'0 0.0
2018-Jul-10 01:56N 59°57' E 030°11'0 0.0
2018-Jul-10 01:25N 59°57' E 030°11'0 0.0
2018-Jul-09 23:51N 59°57' E 030°11'0 0.0
2018-Jul-09 23:30N 59°57' E 030°11'0 0.0
2018-Jul-09 23:00N 59°57' E 030°11'0 0.0
2018-Jul-09 22:30N 59°57' E 030°11'0 0.0
2018-Jul-09 22:00N 59°57' E 030°11'0 0.0
2018-Jul-09 21:23N 59°57' E 030°11'0 0.0
2018-Jul-09 20:16N 59°57' E 030°11'0 0.0
2018-Jul-09 18:10N 59°57' E 030°11'0 0.0
2018-Jul-09 17:48N 59°57' E 030°11'0 0.0
2018-Jul-09 17:27N 59°57' E 030°11'0 0.0
2018-Jul-09 17:00N 59°57' E 030°11'0 0.0
2018-Jul-09 16:27N 59°57' E 030°11'0 0.0
2018-Jul-09 15:21N 59°57' E 030°11'0 0.0
2018-Jul-09 15:00N 59°57' E 030°11'0 0.0
2018-Jul-09 14:17N 59°57' E 030°11'0 0.0
2018-Jul-09 13:55N 59°57' E 030°11'0 0.0
2018-Jul-09 12:42N 59°57' E 030°11'0 0.0
2018-Jul-09 12:24N 59°57' E 030°11'0 0.0
2018-Jul-09 07:26N 59°57' E 030°11'0 0.0
2018-Jul-09 04:02N 59°57' E 030°11'0 0.0
2018-Jul-09 04:00N 59°57' E 030°11'0 0.5
2018-Jul-09 03:30N 59°57' E 030°11'4 7.7
2018-Jul-09 02:59N 59°56' E 030°03'5 9.2
2018-Jul-09 02:30N 59°56' E 029°54'  

Dump ship's entire track history